createdAt,value
2019-03-16T00:02:05.138Z,97465.69
2019-03-16T00:04:38.731Z,97457.34
2019-03-16T00:07:13.164Z,97455.06
2019-03-16T00:09:46.564Z,97469.98
2019-03-16T00:12:18.249Z,97467.55
2019-03-16T00:14:50.625Z,97459.40
2019-03-16T00:17:23.910Z,97457.02
2019-03-16T00:19:57.598Z,97447.02
2019-03-16T00:22:31.053Z,97443.73
2019-03-16T00:25:04.172Z,97451.74
2019-03-16T00:27:37.263Z,97479.92
2019-03-16T00:30:09.654Z,97503.20
2019-03-16T00:32:43.658Z,97515.05
2019-03-16T00:35:17.890Z,97519.77
2019-03-16T00:37:52.027Z,97519.45
2019-03-16T00:40:25.400Z,97512.16
2019-03-16T00:42:58.494Z,97502.58
2019-03-16T00:45:30.492Z,97525.28
2019-03-16T00:48:03.053Z,97523.81
2019-03-16T00:50:36.687Z,97530.94
2019-03-16T00:53:10.099Z,97544.69
2019-03-16T00:55:42.153Z,97540.69
2019-03-16T00:58:15.661Z,97523.45
2019-03-16T01:00:49.931Z,97539.03
2019-03-16T01:03:24.121Z,97527.11
2019-03-16T01:05:57.989Z,97531.25
2019-03-16T01:08:31.555Z,97541.19
2019-03-16T01:11:05.762Z,97539.37
2019-03-16T01:13:39.148Z,97538.88
2019-03-16T01:16:11.044Z,97547.48
2019-03-16T01:18:43.887Z,97536.20
2019-03-16T01:21:16.365Z,97543.67
2019-03-16T01:23:49.895Z,97547.33
2019-03-16T01:26:23.009Z,97542.34
2019-03-16T01:28:56.702Z,97542.37
2019-03-16T01:31:29.982Z,97537.72
2019-03-16T01:34:03.118Z,97530.37
2019-03-16T01:36:37.596Z,97531.84
2019-03-16T01:39:11.365Z,97536.97
2019-03-16T01:41:44.789Z,97523.55
2019-03-16T01:44:16.303Z,97513.59
2019-03-16T01:46:49.334Z,97523.03
2019-03-16T01:49:22.696Z,97525.02
2019-03-16T01:51:56.046Z,97526.18
2019-03-16T01:54:29.676Z,97534.61
2019-03-16T01:57:03.329Z,97536.96
2019-03-16T01:59:37.036Z,97530.16
2019-03-16T02:02:10.771Z,97541.91
2019-03-16T02:04:44.769Z,97533.95
2019-03-16T02:07:18.362Z,97537.27
2019-03-16T02:09:51.347Z,97531.80
2019-03-16T02:12:24.528Z,97533.59
2019-03-16T02:14:56.563Z,97526.83
2019-03-16T02:17:29.217Z,97539.92
2019-03-16T02:20:02.227Z,97540.60
2019-03-16T02:22:34.690Z,97554.52
2019-03-16T02:25:07.673Z,97532.32
2019-03-16T02:27:40.842Z,97556.55
2019-03-16T02:30:14.492Z,97559.88
2019-03-16T02:32:53.484Z,97586.09
2019-03-16T02:35:27.846Z,97580.06
2019-03-16T02:38:04.166Z,97592.27
2019-03-16T02:40:38.535Z,97599.69
2019-03-16T02:43:12.599Z,97578.17
2019-03-16T02:45:46.875Z,97619.69
2019-03-16T02:48:20.908Z,97596.39
2019-03-16T02:50:53.949Z,97623.50
2019-03-16T02:53:27.357Z,97631.91
2019-03-16T02:56:01.298Z,97637.47
2019-03-16T02:58:34.813Z,97635.45
2019-03-16T03:01:08.126Z,97641.28
2019-03-16T03:03:43.102Z,97616.17
2019-03-16T03:06:17.034Z,97633.73
2019-03-16T03:08:50.295Z,97656.38
2019-03-16T03:11:24.383Z,97666.77
2019-03-16T03:13:58.076Z,97665.75
2019-03-16T03:16:33.734Z,97652.67
2019-03-16T03:19:10.236Z,97662.14
2019-03-16T03:21:46.500Z,97668.70
2019-03-16T03:24:22.067Z,97672.64
2019-03-16T03:26:55.823Z,97675.92
2019-03-16T03:29:30.445Z,97665.75
2019-03-16T03:32:03.474Z,97663.18
2019-03-16T03:34:35.817Z,97690.12
2019-03-16T03:37:08.573Z,97685.28
2019-03-16T03:39:41.924Z,97698.74
2019-03-16T03:42:17.316Z,97694.33
2019-03-16T03:44:53.235Z,97689.10
2019-03-16T03:47:27.632Z,97689.49
2019-03-16T03:50:01.165Z,97688.38
2019-03-16T03:52:35.548Z,97717.09
2019-03-16T03:55:11.005Z,97686.97
2019-03-16T03:57:45.746Z,97694.11
2019-03-16T04:00:20.059Z,97707.05
2019-03-16T04:02:54.017Z,97709.55
2019-03-16T04:05:28.829Z,97708.78
2019-03-16T04:08:03.252Z,97719.28
2019-03-16T04:10:38.091Z,97727.17
2019-03-16T04:13:11.682Z,97709.41
2019-03-16T04:15:45.201Z,97719.20
2019-03-16T04:18:17.055Z,97721.81
2019-03-16T04:20:50.234Z,97719.10
2019-03-16T04:23:24.482Z,97726.55
2019-03-16T04:25:58.756Z,97718.48
2019-03-16T04:28:32.473Z,97736.28
2019-03-16T04:31:06.554Z,97727.91
2019-03-16T04:33:39.824Z,97735.55
2019-03-16T04:36:15.910Z,97746.63
2019-03-16T04:38:49.624Z,97738.44
2019-03-16T04:41:23.021Z,97739.95
2019-03-16T04:43:54.396Z,97718.19
2019-03-16T04:46:27.115Z,97720.60
2019-03-16T04:49:00.702Z,97714.00
2019-03-16T04:51:34.395Z,97728.53
2019-03-16T04:54:08.793Z,97734.98
2019-03-16T04:56:42.048Z,97728.56
2019-03-16T04:59:17.412Z,97725.23
2019-03-16T05:01:53.886Z,97731.17
2019-03-16T05:04:41.627Z,97731.50
2019-03-16T05:07:03.739Z,97730.47
2019-03-16T05:09:36.594Z,97729.15
2019-03-16T05:12:10.604Z,97741.62
2019-03-16T05:14:46.122Z,97742.50
2019-03-16T05:17:19.826Z,97731.94
2019-03-16T05:19:52.830Z,97756.84
2019-03-16T05:22:26.160Z,97750.24
2019-03-16T05:25:00.834Z,97747.94
2019-03-16T05:27:34.163Z,97747.23
2019-03-16T05:30:08.122Z,97746.28
2019-03-16T05:32:41.397Z,97754.97
2019-03-16T05:35:12.850Z,97754.78
2019-03-16T05:37:45.943Z,97761.72
2019-03-16T05:40:21.926Z,97765.87
2019-03-16T05:42:56.025Z,97767.89
2019-03-16T05:45:29.887Z,97770.97
2019-03-16T05:48:04.449Z,97778.55
2019-03-16T05:50:38.205Z,97767.34
2019-03-16T05:53:11.858Z,97780.25
2019-03-16T05:56:24.799Z,97783.27
2019-03-16T05:58:59.754Z,97795.77
2019-03-16T06:01:35.364Z,97792.84
2019-03-16T06:04:08.588Z,97787.84
2019-03-16T06:06:42.180Z,97785.68
2019-03-16T06:09:16.285Z,97785.48
2019-03-16T06:11:49.284Z,97782.70
2019-03-16T06:14:25.515Z,97774.45
2019-03-16T06:17:01.618Z,97788.83
2019-03-16T06:19:35.128Z,97783.27
2019-03-16T06:22:07.536Z,97783.34
2019-03-16T06:24:42.805Z,97785.08
2019-03-16T06:27:17.205Z,97788.96
2019-03-16T06:29:50.154Z,97793.13
2019-03-16T06:32:22.859Z,97795.95
2019-03-16T06:34:56.387Z,97789.14
2019-03-16T06:37:33.986Z,97798.02
2019-03-16T06:40:09.354Z,97801.84
2019-03-16T06:42:55.876Z,97790.84
2019-03-16T06:45:51.643Z,97801.80
2019-03-16T06:48:26.870Z,97802.83
2019-03-16T06:51:04.259Z,97804.34
2019-03-16T06:53:44.834Z,97805.80
2019-03-16T06:56:28.789Z,97801.22
2019-03-16T06:59:01.969Z,97801.22
2019-03-16T07:01:34.470Z,97802.92
2019-03-16T07:04:07.834Z,97808.40
2019-03-16T07:06:41.176Z,97819.01
2019-03-16T07:09:14.059Z,97809.47
2019-03-16T07:11:47.706Z,97797.21
2019-03-16T07:14:21.750Z,97809.09
2019-03-16T07:17:01.932Z,97813.92
2019-03-16T07:19:33.945Z,97812.41
2019-03-16T07:22:06.555Z,97812.41
2019-03-16T07:24:40.410Z,97819.30
2019-03-16T07:27:25.657Z,97819.52
2019-03-16T07:29:49.255Z,97810.09
2019-03-16T07:32:22.575Z,97810.09
2019-03-16T07:34:57.146Z,97818.24
2019-03-16T07:37:30.851Z,97813.48
2019-03-16T07:40:04.779Z,97818.43
2019-03-16T07:42:39.084Z,97821.13
2019-03-16T07:46:07.907Z,97818.14
2019-03-16T07:48:42.473Z,97827.44
2019-03-16T07:51:16.019Z,97827.44
2019-03-16T07:53:48.334Z,97826.69
2019-03-16T07:56:20.828Z,97817.81
2019-03-16T07:58:54.803Z,97828.02
2019-03-16T08:01:28.840Z,97820.83
2019-03-16T08:04:02.846Z,97829.55
2019-03-16T08:06:36.548Z,97821.03
2019-03-16T08:09:11.036Z,97818.42
2019-03-16T08:11:44.697Z,97812.77
2019-03-16T08:14:18.618Z,97809.75
2019-03-16T08:16:52.160Z,97818.81
2019-03-16T08:19:24.144Z,97826.80
2019-03-16T08:21:57.819Z,97820.41
2019-03-16T08:24:33.467Z,97825.16
2019-03-16T08:27:07.949Z,97819.33
2019-03-16T08:29:41.014Z,97826.63
2019-03-16T08:32:14.044Z,97820.41
2019-03-16T08:34:51.454Z,97814.73
2019-03-16T08:37:25.150Z,97830.39
2019-03-16T08:39:58.199Z,97834.19
2019-03-16T08:42:31.659Z,97833.88
2019-03-16T08:45:05.193Z,97830.94
2019-03-16T08:47:38.634Z,97837.23
2019-03-16T08:50:11.564Z,97843.50
2019-03-16T08:52:45.024Z,97838.08
2019-03-16T08:55:19.091Z,97840.06
2019-03-16T08:58:05.397Z,97851.69
2019-03-16T09:00:29.038Z,97849.02
2019-03-16T09:03:02.694Z,97845.03
2019-03-16T09:05:36.889Z,97847.38
2019-03-16T09:08:10.112Z,97866.09
2019-03-16T09:10:43.670Z,97860.11
2019-03-16T09:13:18.019Z,97857.66
2019-03-16T09:15:51.273Z,97864.63
2019-03-16T09:18:24.507Z,97856.34
2019-03-16T09:20:57.730Z,97859.69
2019-03-16T09:23:30.544Z,97871.27
2019-03-16T09:26:05.039Z,97863.98
2019-03-16T09:28:38.480Z,97865.00
2019-03-16T09:31:09.771Z,97859.53
2019-03-16T09:33:42.351Z,97865.05
2019-03-16T09:36:15.981Z,97878.00
2019-03-16T09:38:49.807Z,97877.52
2019-03-16T09:41:23.306Z,97877.52
2019-03-16T09:43:56.741Z,97877.16
2019-03-16T09:46:30.767Z,97876.36
2019-03-16T09:49:04.650Z,97881.34
2019-03-16T09:51:37.834Z,97876.20
2019-03-16T09:54:11.230Z,97871.73
2019-03-16T09:56:44.622Z,97886.05
2019-03-16T09:59:16.074Z,97874.75
2019-03-16T10:01:49.505Z,97881.23
2019-03-16T10:04:23.789Z,97892.86
2019-03-16T10:06:57.672Z,97882.08
2019-03-16T10:09:32.217Z,97883.92
2019-03-16T10:12:06.328Z,97880.78
2019-03-16T10:14:40.498Z,97868.34
2019-03-16T10:17:14.303Z,97878.18
2019-03-16T10:19:48.327Z,97874.52
2019-03-16T10:22:22.403Z,97878.36
2019-03-16T10:25:14.757Z,97893.43
2019-03-16T10:27:50.837Z,97891.27
2019-03-16T10:30:24.613Z,97897.75
2019-03-16T10:32:58.086Z,97897.87
2019-03-16T10:35:30.244Z,97901.70
2019-03-16T10:38:03.420Z,97905.52
2019-03-16T10:40:36.089Z,97912.28
2019-03-16T10:43:09.049Z,97909.91
2019-03-16T10:45:43.238Z,97920.00
2019-03-16T10:48:17.047Z,97920.80
2019-03-16T10:50:50.776Z,97942.81
2019-03-16T10:53:24.583Z,97923.70
2019-03-16T10:55:58.548Z,97925.64
2019-03-16T10:58:31.921Z,97923.84
2019-03-16T11:01:04.192Z,97920.86
2019-03-16T11:03:39.785Z,97912.69
2019-03-16T11:06:13.670Z,97924.31
2019-03-16T11:08:47.347Z,97928.27
2019-03-16T11:11:21.069Z,97917.96
2019-03-16T11:13:54.470Z,97914.48
2019-03-16T11:16:26.403Z,97919.63
2019-03-16T11:19:00.378Z,97913.69
2019-03-16T11:21:33.815Z,97910.05
2019-03-16T11:24:05.780Z,97889.88
2019-03-16T11:26:38.698Z,97886.23
2019-03-16T11:29:10.114Z,97884.27
2019-03-16T11:31:43.712Z,97884.97
2019-03-16T11:34:18.332Z,97885.02
2019-03-16T11:36:52.763Z,97884.11
2019-03-16T11:39:25.795Z,97875.16
2019-03-16T11:41:59.406Z,97865.23
2019-03-16T11:44:32.804Z,97863.39
2019-03-16T11:47:05.219Z,97870.38
2019-03-16T11:49:38.013Z,97874.02
2019-03-16T11:52:09.051Z,97875.34
2019-03-16T11:54:42.933Z,97846.47
2019-03-16T11:57:16.692Z,97855.61
2019-03-16T11:59:55.097Z,97849.63
2019-03-16T12:02:29.324Z,97845.12
2019-03-16T12:05:03.283Z,97853.91
2019-03-16T12:07:36.776Z,97853.25
2019-03-16T12:10:10.084Z,97855.59
2019-03-16T12:12:43.172Z,97851.77
2019-03-16T12:15:15.013Z,97856.91
2019-03-16T12:17:47.865Z,97843.44
2019-03-16T12:20:19.229Z,97852.42
2019-03-16T12:22:52.102Z,97854.91
2019-03-16T12:25:24.048Z,97847.59
2019-03-16T12:27:57.512Z,97855.25
2019-03-16T12:30:31.836Z,97833.48
2019-03-16T12:33:05.428Z,97850.27
2019-03-16T12:35:38.713Z,97847.30
2019-03-16T12:38:11.665Z,97853.27
2019-03-16T12:40:43.424Z,97844.97
2019-03-16T12:43:16.499Z,97848.45
2019-03-16T12:45:50.326Z,97846.45
2019-03-16T12:48:24.298Z,97844.30
2019-03-16T12:50:58.028Z,97842.14
2019-03-16T12:53:32.251Z,97834.66
2019-03-16T12:56:05.798Z,97838.14
2019-03-16T12:58:40.122Z,97838.13
2019-03-16T13:01:14.481Z,97839.64
2019-03-16T13:03:50.354Z,97838.98
2019-03-16T13:06:24.020Z,97822.72
2019-03-16T13:08:59.277Z,97834.02
2019-03-16T13:11:33.341Z,97812.41
2019-03-16T13:14:08.197Z,97820.84
2019-03-16T13:16:41.525Z,97817.59
2019-03-16T13:19:14.979Z,97814.42
2019-03-16T13:21:49.147Z,97812.94
2019-03-16T13:24:22.808Z,97802.69
2019-03-16T13:26:56.137Z,97799.77
2019-03-16T13:29:28.811Z,97794.20
2019-03-16T13:32:01.167Z,97795.39
2019-03-16T13:34:34.495Z,97794.73
2019-03-16T13:37:07.518Z,97785.27
2019-03-16T13:39:40.165Z,97792.27
2019-03-16T13:42:15.243Z,97786.46
2019-03-16T13:44:48.750Z,97788.66
2019-03-16T13:47:21.797Z,97791.97
2019-03-16T13:49:54.472Z,97787.42
2019-03-16T13:52:28.490Z,97776.53
2019-03-16T13:55:01.652Z,97781.11
2019-03-16T13:57:34.844Z,97762.09
2019-03-16T14:00:12.058Z,97761.65
2019-03-16T14:02:44.787Z,97758.27
2019-03-16T14:05:18.604Z,97752.66
2019-03-16T14:07:52.082Z,97751.08
2019-03-16T14:10:26.267Z,97742.28
2019-03-16T14:13:00.129Z,97749.20
2019-03-16T14:15:33.456Z,97731.45
2019-03-16T14:18:05.432Z,97730.95
2019-03-16T14:20:38.471Z,97731.98
2019-03-16T14:23:11.467Z,97729.16
2019-03-16T14:25:43.518Z,97721.05
2019-03-16T14:28:16.200Z,97718.44
2019-03-16T14:30:49.560Z,97718.53
2019-03-16T14:33:22.752Z,97717.02
2019-03-16T14:35:56.256Z,97719.20
2019-03-16T14:38:33.796Z,97721.70
2019-03-16T14:41:06.478Z,97720.41
2019-03-16T14:43:39.211Z,97715.92
2019-03-16T14:46:12.704Z,97718.89
2019-03-16T14:48:47.159Z,97706.42
2019-03-16T14:51:21.069Z,97716.42
2019-03-16T14:53:55.737Z,97713.29
2019-03-16T14:56:29.751Z,97714.19
2019-03-16T14:59:03.508Z,97702.16
2019-03-16T15:01:37.762Z,97712.75
2019-03-16T15:04:11.173Z,97710.72
2019-03-16T15:06:43.238Z,97706.91
2019-03-16T15:09:16.178Z,97719.17
2019-03-16T15:11:50.501Z,97706.29
2019-03-16T15:14:24.567Z,97705.22
2019-03-16T15:16:58.906Z,97698.97
2019-03-16T15:19:33.290Z,97700.25
2019-03-16T15:22:07.097Z,97696.52
2019-03-16T15:24:40.956Z,97701.81
2019-03-16T15:27:15.969Z,97706.86
2019-03-16T15:29:49.414Z,97693.89
2019-03-16T15:32:20.813Z,97697.42
2019-03-16T15:34:53.527Z,97690.18
2019-03-16T15:37:27.199Z,97687.72
2019-03-16T15:40:00.902Z,97689.33
2019-03-16T15:42:34.637Z,97689.75
2019-03-16T15:45:10.784Z,97680.56
2019-03-16T15:47:43.961Z,97678.06
2019-03-16T15:50:17.715Z,97683.73
2019-03-16T15:52:51.444Z,97680.52
2019-03-16T15:55:24.476Z,97677.70
2019-03-16T15:58:07.340Z,97671.59
2019-03-16T16:00:32.664Z,97668.37
2019-03-16T16:03:09.189Z,97673.88
2019-03-16T16:05:42.290Z,97676.97
2019-03-16T16:08:13.604Z,97673.31
2019-03-16T16:10:59.674Z,97672.42
2019-03-16T16:13:21.516Z,97668.39
2019-03-16T16:15:54.842Z,97669.58
2019-03-16T16:18:28.441Z,97662.09
2019-03-16T16:21:02.365Z,97659.61
2019-03-16T16:23:36.585Z,97661.37
2019-03-16T16:26:10.060Z,97662.34
2019-03-16T16:28:44.048Z,97661.64
2019-03-16T16:31:17.486Z,97664.71
2019-03-16T16:33:49.808Z,97659.33
2019-03-16T16:36:22.771Z,97667.84
2019-03-16T16:38:56.787Z,97664.23
2019-03-16T16:41:30.223Z,97662.94
2019-03-16T16:44:01.276Z,97660.94
2019-03-16T16:46:35.747Z,97649.63
2019-03-16T16:49:09.736Z,97661.70
2019-03-16T16:51:43.393Z,97651.47
2019-03-16T16:54:16.762Z,97651.75
2019-03-16T16:56:48.854Z,97659.77
2019-03-16T16:59:21.275Z,97663.02
2019-03-16T17:01:55.159Z,97663.68
2019-03-16T17:04:29.071Z,97656.91
2019-03-16T17:07:02.396Z,97655.27
2019-03-16T17:09:40.236Z,97651.95
2019-03-16T17:12:14.011Z,97655.30
2019-03-16T17:14:47.400Z,97645.16
2019-03-16T17:17:19.525Z,97643.52
2019-03-16T17:19:52.570Z,97640.03
2019-03-16T17:22:26.586Z,97634.94
2019-03-16T17:25:00.767Z,97632.65
2019-03-16T17:27:34.684Z,97634.97
2019-03-16T17:30:14.248Z,97634.83
2019-03-16T17:32:47.367Z,97635.14
2019-03-16T17:35:21.034Z,97629.02
2019-03-16T17:37:54.106Z,97629.53
2019-03-16T17:40:27.132Z,97627.55
2019-03-16T17:43:00.293Z,97622.90
2019-03-16T17:45:33.911Z,97617.92
2019-03-16T17:48:08.190Z,97618.59
2019-03-16T17:50:42.190Z,97616.28
2019-03-16T17:53:16.649Z,97614.95
2019-03-16T17:55:50.095Z,97623.56
2019-03-16T17:58:21.090Z,97618.28
2019-03-16T18:00:54.360Z,97622.57
2019-03-16T18:03:28.023Z,97621.25
2019-03-16T18:06:00.698Z,97618.27
2019-03-16T18:08:34.119Z,97618.55
2019-03-16T18:11:08.149Z,97619.89
2019-03-16T18:13:42.088Z,97628.12
2019-03-16T18:16:16.392Z,97624.19
2019-03-16T18:18:50.760Z,97621.66
2019-03-16T18:21:23.828Z,97629.93
2019-03-16T18:23:56.629Z,97631.72
2019-03-16T18:26:30.144Z,97623.72
2019-03-16T18:29:06.038Z,97618.20
2019-03-16T18:31:39.459Z,97616.00
2019-03-16T18:34:11.827Z,97623.13
2019-03-16T18:36:45.857Z,97608.96
2019-03-16T18:39:20.619Z,97614.91
2019-03-16T18:41:54.374Z,97609.08
2019-03-16T18:44:28.835Z,97602.48
2019-03-16T18:47:03.204Z,97602.94
2019-03-16T18:49:40.546Z,97606.35
2019-03-16T18:52:13.684Z,97609.75
2019-03-16T18:54:47.876Z,97603.39
2019-03-16T18:57:22.412Z,97605.48
2019-03-16T18:59:57.381Z,97609.35
2019-03-16T19:02:30.952Z,97614.52
2019-03-16T19:05:04.418Z,97610.13
2019-03-16T19:07:35.967Z,97605.50
2019-03-16T19:10:11.063Z,97615.14
2019-03-16T19:12:44.886Z,97609.59
2019-03-16T19:15:19.057Z,97604.14
2019-03-16T19:17:58.962Z,97602.55
2019-03-16T19:20:30.912Z,97605.25
2019-03-16T19:23:06.114Z,97596.75
2019-03-16T19:25:40.398Z,97596.28
2019-03-16T19:28:13.488Z,97591.23
2019-03-16T19:30:47.794Z,97581.81
2019-03-16T19:33:21.980Z,97590.47
2019-03-16T19:35:55.723Z,97575.89
2019-03-16T19:38:29.068Z,97577.52
2019-03-16T19:41:02.565Z,97573.43
2019-03-16T19:43:35.280Z,97571.30
2019-03-16T19:46:08.999Z,97575.67
2019-03-16T19:48:43.382Z,97571.86
2019-03-16T19:51:16.983Z,97569.79
2019-03-16T19:53:51.308Z,97570.55
2019-03-16T19:56:25.210Z,97555.47
2019-03-16T19:59:00.767Z,97561.13
2019-03-16T20:01:34.203Z,97559.75
2019-03-16T20:04:08.923Z,97563.22
2019-03-16T20:06:43.202Z,97566.27
2019-03-16T20:09:17.265Z,97561.02
2019-03-16T20:11:51.023Z,97563.44
2019-03-16T20:14:24.366Z,97566.20
2019-03-16T20:16:58.212Z,97558.52
2019-03-16T20:19:32.270Z,97558.42
2019-03-16T20:22:06.177Z,97556.97
2019-03-16T20:24:42.176Z,97556.57
2019-03-16T20:27:15.627Z,97559.68
2019-03-16T20:29:47.416Z,97561.80
2019-03-16T20:32:20.230Z,97569.26
2019-03-16T20:34:54.049Z,97571.22
2019-03-16T20:37:27.943Z,97565.82
2019-03-16T20:40:00.999Z,97557.41
2019-03-16T20:42:34.576Z,97556.97
2019-03-16T20:45:09.363Z,97565.64
2019-03-16T20:47:43.253Z,97560.58
2019-03-16T20:50:17.043Z,97556.41
2019-03-16T20:52:51.080Z,97560.69
2019-03-16T20:55:24.525Z,97560.31
2019-03-16T20:57:57.419Z,97556.26
2019-03-16T21:00:31.163Z,97561.78
2019-03-16T21:03:15.616Z,97561.00
2019-03-16T21:05:40.930Z,97564.87
2019-03-16T21:08:13.083Z,97552.96
2019-03-16T21:10:46.593Z,97558.48
2019-03-16T21:13:20.459Z,97559.88
2019-03-16T21:15:54.397Z,97559.20
2019-03-16T21:18:28.807Z,97555.13
2019-03-16T21:21:02.130Z,97552.05
2019-03-16T21:23:36.400Z,97554.52
2019-03-16T21:26:12.889Z,97551.30
2019-03-16T21:28:46.882Z,97549.03
2019-03-16T21:31:20.588Z,97553.64
2019-03-16T21:33:54.377Z,97553.73
2019-03-16T21:36:27.828Z,97548.50
2019-03-16T21:39:00.793Z,97550.05
2019-03-16T21:41:32.322Z,97547.70
2019-03-16T21:44:05.731Z,97548.63
2019-03-16T21:46:43.794Z,97546.89
2019-03-16T21:49:16.594Z,97544.64
2019-03-16T21:51:50.883Z,97545.78
2019-03-16T21:54:23.998Z,97545.61
2019-03-16T21:56:58.287Z,97537.69
2019-03-16T21:59:32.387Z,97539.53
2019-03-16T22:02:05.811Z,97525.90
2019-03-16T22:04:39.365Z,97527.41
2019-03-16T22:07:13.233Z,97529.42
2019-03-16T22:09:46.805Z,97527.89
2019-03-16T22:12:19.262Z,97526.77
2019-03-16T22:14:52.392Z,97530.78
2019-03-16T22:17:27.325Z,97516.02
2019-03-16T22:20:01.268Z,97521.54
2019-03-16T22:22:34.986Z,97522.77
2019-03-16T22:25:08.451Z,97513.13
2019-03-16T22:27:42.041Z,97515.44
2019-03-16T22:30:15.774Z,97513.92
2019-03-16T22:32:51.106Z,97516.72
2019-03-16T22:35:25.930Z,97506.98
2019-03-16T22:37:58.803Z,97512.02
2019-03-16T22:40:31.628Z,97503.30
2019-03-16T22:43:05.843Z,97507.23
2019-03-16T22:45:39.984Z,97495.05
2019-03-16T22:48:13.965Z,97488.73
2019-03-16T22:50:47.350Z,97483.97
2019-03-16T22:53:20.371Z,97489.22
2019-03-16T22:55:52.597Z,97478.66
2019-03-16T22:58:25.793Z,97474.91
2019-03-16T23:00:59.305Z,97472.34
2019-03-16T23:03:31.660Z,97477.86
2019-03-16T23:06:05.170Z,97465.56
2019-03-16T23:08:39.053Z,97464.45
2019-03-16T23:11:12.669Z,97453.19
2019-03-16T23:13:44.342Z,97458.42
2019-03-16T23:16:18.973Z,97450.17
2019-03-16T23:18:53.026Z,97453.88
2019-03-16T23:21:26.738Z,97443.24
2019-03-16T23:24:00.574Z,97442.27
2019-03-16T23:26:38.707Z,97441.72
2019-03-16T23:29:10.009Z,97444.22
2019-03-16T23:31:43.450Z,97438.77
2019-03-16T23:34:19.455Z,97435.13
2019-03-16T23:36:50.695Z,97425.47
2019-03-16T23:39:24.428Z,97423.37
2019-03-16T23:41:57.641Z,97424.46
2019-03-16T23:44:33.890Z,97414.23
2019-03-16T23:47:10.226Z,97413.67
2019-03-16T23:49:43.999Z,97410.89
2019-03-16T23:52:17.982Z,97407.87
2019-03-16T23:54:52.525Z,97399.76
2019-03-16T23:57:25.931Z,97400.88
